Terminal Aerodrome Forecast
Issued by NWS Rapid City, SD

Home | Current Version | Previous Version | Graphics & Text | Print | Product List | Glossary Off
Versions: 1 2 3 4 5 6 7 8 9 10 11 12 13 14 15 16 17 18

000
FTUS43 KUNR 071720
TAFRAP
TAF
KRAP 071720Z 0718/0818 17012G22KT P6SM BKN060
     FM080100 19008KT P6SM OVC120
      TEMPO 0801/0804 P6SM -TSRA BKN050CB=

USA.gov is the U.S. government's official web portal to all federal, state and local government web resources and services.